Duluth International Airport Duluth US
ICAO: KDLH
IATA: DLH
Category: Large
Scheduled Services: Yes

Elevation: 1428 ft
TransAlt. 18000 ft.

Airport Communications:
APP/DEP:125.45
ATIS:124.1
GND:121.9
ANG COMD POST:28.89
PTD:28.89
PRINCETON RDO:122.35
TWR:118.3
UNICOM:122.95

KDLH Zoom In..

If you have problems with the map follow the link
https://www.worldairports.se/pages/airport.php?
ICAO=KDLH

Runways:

(A) RW 03 length 5719 ft width 150 ft
---- / hdg 30

(B) RW 09 length 10162 ft width 150 ft
ILS 110.30 / hdg 90

(C) RW 21 length 5719 ft width 150 ft
---- / hdg 210

(D) RW 27 length 10162 ft width 150 ft
ILS 108.70 / hdg 270

Location; KDLH
Day. 21 / Time. 04.55 Zulu
* Altimeter: 30.43
* Temperature: -14° c. -6.8°f.
* Wind from: 250° Speed 10 kn.
Dewpoint: -16° c.
Visibility: 9 Statute Miles.
Clouds: Clear (automated report).

KDLH 210455Z 25010KT 9SM CLR M14/M16 A3043 RMK AO2 SLP344 T11391161 $


Wind From 250°
Speed 10 kn.

 
 
jpsmedia worldairports.se 2020   terms of use